Time;durP1;ratioP1;P1;durP2;ratioP2;P2;SDS_P1;SDS_P2;PMS_P1;PMS_P2;Temp;Humidity;BMP_temperature;BMP_pressure;BME280_temperature;BME280_humidity;BME280_pressure;Samples;Min_cycle;Max_cycle;Signal;HPM_P1;HPM_P2
2022/09/15 00:01:38;;;;;;;3.50;2.90;;;19.00;93.50;;;;;;4993639;28;20183;-72
2022/09/15 00:04:07;;;;;;;3.30;3.00;;;19.10;93.50;;;;;;4989064;28;20480;-72
2022/09/15 00:06:34;;;;;;;4.80;3.10;;;19.00;93.50;;;;;;4958643;28;20817;-72
2022/09/15 00:09:06;;;;;;;4.10;3.27;;;19.00;93.40;;;;;;4982705;28;20499;-72
2022/09/15 00:11:35;;;;;;;3.20;2.90;;;19.10;93.50;;;;;;5025058;23;20879;-71
2022/09/15 00:14:07;;;;;;;3.03;2.63;;;19.00;93.50;;;;;;4957103;28;20446;-71
2022/09/15 00:16:33;;;;;;;3.40;2.67;;;19.00;93.40;;;;;;4957462;28;20410;-70
2022/09/15 00:19:00;;;;;;;3.30;3.00;;;19.00;93.40;;;;;;4957325;28;20495;-71
2022/09/15 00:21:31;;;;;;;3.30;2.93;;;19.00;93.40;;;;;;4957806;28;20436;-71
2022/09/15 00:24:00;;;;;;;3.10;2.73;;;19.00;93.40;;;;;;4940857;28;20535;-71
2022/09/15 00:26:28;;;;;;;3.37;2.93;;;19.00;93.40;;;;;;4926051;28;20414;-71
2022/09/15 00:28:56;;;;;;;3.50;2.77;;;19.00;93.40;;;;;;4974294;28;20446;-71
2022/09/15 00:31:26;;;;;;;3.00;2.40;;;19.00;93.40;;;;;;4957709;28;20430;-72
2022/09/15 00:34:03;;;;;;;2.70;2.23;;;19.00;93.40;;;;;;4957311;28;20930;-72
2022/09/15 00:36:30;;;;;;;3.70;2.70;;;19.00;93.40;;;;;;4926036;28;20500;-72
2022/09/15 00:38:56;;;;;;;3.60;2.93;;;19.00;93.40;;;;;;4926685;29;20550;-72
2022/09/15 00:41:27;;;;;;;3.00;2.70;;;18.90;93.30;;;;;;4938156;29;20486;-72
2022/09/15 00:43:54;;;;;;;3.00;2.67;;;19.00;93.70;;;;;;4969169;28;20469;-72
2022/09/15 00:46:25;;;;;;;4.67;2.70;;;18.90;93.30;;;;;;4925857;28;20991;-71
2022/09/15 00:49:09;;;;;;;5.30;2.70;;;18.90;93.30;;;;;;4957379;28;20429;-72
2022/09/15 00:51:46;;;;;;;3.93;2.40;;;18.90;93.30;;;;;;4941556;28;20528;-72
2022/09/15 00:54:31;;;;;;;2.93;2.40;;;18.90;93.30;;;;;;4925561;28;20461;-71
2022/09/15 00:57:05;;;;;;;3.10;2.87;;;18.90;93.30;;;;;;4941852;28;20421;-72
2022/09/15 00:59:40;;;;;;;4.27;2.97;;;18.90;93.20;;;;;;4956813;28;20469;-72
2022/09/15 01:02:21;;;;;;;2.90;2.53;;;18.90;93.20;;;;;;4973946;28;20867;-72
2022/09/15 01:04:50;;;;;;;3.10;2.80;;;18.80;93.20;;;;;;4945004;28;20978;-72
2022/09/15 01:07:21;;;;;;;4.40;2.63;;;18.80;93.20;;;;;;4973394;28;20410;-71
2022/09/15 01:10:01;;;;;;;5.37;2.70;;;18.90;93.20;;;;;;4956480;28;20449;-72
2022/09/15 01:12:27;;;;;;;2.90;2.40;;;18.90;93.20;;;;;;4956313;28;20430;-72
2022/09/15 01:14:58;;;;;;;3.17;2.70;;;18.80;93.10;;;;;;4972173;28;20465;-72
2022/09/15 01:18:05;;;;;;;3.00;2.33;;;18.90;93.20;;;;;;4940636;28;20453;-72
2022/09/15 01:20:43;;;;;;;3.83;2.80;;;18.80;93.10;;;;;;4972172;28;20469;-72
2022/09/15 01:23:52;;;;;;;2.47;2.27;;;18.80;93.10;;;;;;4956189;28;20528;-71
2022/09/15 01:26:58;;;;;;;6.80;2.90;;;18.80;93.10;;;;;;4953134;29;20528;-72
2022/09/15 01:30:01;;;;;;;6.13;2.80;;;18.80;93.10;;;;;;4971211;28;20452;-72
2022/09/15 01:33:02;;;;;;;3.73;2.57;;;18.70;93.00;;;;;;4956322;28;20436;-72
2022/09/15 01:35:41;;;;;;;3.37;3.07;;;18.70;93.00;;;;;;4953357;28;20454;-71
2022/09/15 01:38:32;;;;;;;2.73;2.40;;;18.70;93.00;;;;;;4944575;28;20434;-71
2022/09/15 01:41:01;;;;;;;4.27;3.00;;;18.70;93.00;;;;;;4952410;28;20845;-72
2022/09/15 01:43:28;;;;;;;5.37;2.70;;;18.70;93.00;;;;;;4947261;29;20423;-72
2022/09/15 01:45:55;;;;;;;2.93;2.63;;;18.70;93.00;;;;;;4969211;28;21001;-72
2022/09/15 01:48:26;;;;;;;3.00;2.67;;;18.70;93.00;;;;;;4972728;28;20438;-72
2022/09/15 01:50:56;;;;;;;3.20;2.50;;;18.70;92.90;;;;;;4940476;28;20515;-72
2022/09/15 01:53:23;;;;;;;4.03;2.97;;;18.70;92.90;;;;;;4940023;28;20831;-72
2022/09/15 01:56:11;;;;;;;3.13;2.83;;;18.70;92.90;;;;;;4971841;28;20465;-72
2022/09/15 01:58:39;;;;;;;3.33;2.87;;;18.70;92.90;;;;;;4955446;28;20488;-72
2022/09/15 02:01:30;;;;;;;5.43;3.17;;;18.70;92.90;;;;;;4973094;28;20979;-72
2022/09/15 02:04:17;;;;;;;5.03;3.17;;;18.60;92.80;;;;;;4972384;28;20870;-72
2022/09/15 02:07:02;;;;;;;3.40;3.10;;;18.60;92.80;;;;;;4955993;28;20489;-72
2022/09/15 02:09:35;;;;;;;8.50;2.70;;;18.60;92.70;;;;;;4972748;28;20426;-72
2022/09/15 02:12:32;;;;;;;4.43;2.87;;;18.60;92.70;;;;;;4964472;28;20449;-72
2022/09/15 02:15:13;;;;;;;3.53;2.90;;;18.60;92.70;;;;;;4944040;28;20998;-72
2022/09/15 02:17:49;;;;;;;4.70;2.83;;;18.60;92.70;;;;;;4955617;28;20451;-71
2022/09/15 02:20:30;;;;;;;3.50;2.90;;;18.60;92.70;;;;;;4956027;28;20441;-72
2022/09/15 02:23:07;;;;;;;4.57;2.97;;;18.60;92.70;;;;;;4951810;29;20457;-72
2022/09/15 02:25:47;;;;;;;3.30;3.00;;;18.60;92.70;;;;;;4931900;28;20540;-71
2022/09/15 02:28:43;;;;;;;6.27;2.97;;;18.50;92.60;;;;;;4952307;29;20835;-72
2022/09/15 02:31:14;;;;;;;4.33;3.17;;;18.50;92.60;;;;;;4937092;28;20438;-72
2022/09/15 02:33:50;;;;;;;4.73;3.00;;;18.50;92.60;;;;;;4920567;29;20781;-72
2022/09/15 02:36:19;;;;;;;3.20;2.60;;;18.50;92.60;;;;;;4969178;28;20542;-72
2022/09/15 02:38:53;;;;;;;3.33;3.03;;;18.50;92.50;;;;;;4940709;28;20476;-72
2022/09/15 02:41:25;;;;;;;4.10;3.10;;;18.50;92.60;;;;;;4951859;29;20829;-72
2022/09/15 02:43:51;;;;;;;3.40;2.40;;;18.50;92.50;;;;;;4965275;28;20436;-71
2022/09/15 02:46:20;;;;;;;3.00;2.63;;;18.50;92.50;;;;;;4939162;29;20512;-71
2022/09/15 02:48:49;;;;;;;3.40;2.90;;;18.50;92.50;;;;;;4943248;28;20441;-72
2022/09/15 02:51:17;;;;;;;3.10;2.10;;;18.50;92.40;;;;;;4952117;29;20426;-71
2022/09/15 02:53:45;;;;;;;8.73;3.37;;;18.40;92.40;;;;;;4946759;28;20468;-72
2022/09/15 02:56:11;;;;;;;9.37;2.50;;;18.40;92.40;;;;;;4972905;28;20915;-72
2022/09/15 02:58:40;;;;;;;7.93;2.60;;;18.40;92.40;;;;;;4955932;28;20436;-72
2022/09/15 03:01:13;;;;;;;2.70;2.30;;;18.40;92.40;;;;;;4972521;28;20421;-72
2022/09/15 03:03:45;;;;;;;3.90;2.90;;;18.40;92.40;;;;;;4972725;28;20846;-72
2022/09/15 03:06:15;;;;;;;4.17;3.20;;;18.40;92.40;;;;;;4955373;28;20417;-72
2022/09/15 03:08:50;;;;;;;3.80;2.90;;;18.40;92.30;;;;;;4972313;28;20429;-72
2022/09/15 03:11:20;;;;;;;4.10;3.13;;;18.40;92.40;;;;;;4955716;28;20241;-71
2022/09/15 03:13:53;;;;;;;4.30;2.80;;;18.40;92.30;;;;;;4955456;28;20418;-72
2022/09/15 03:16:22;;;;;;;2.70;2.50;;;18.40;92.30;;;;;;4921878;29;20443;-72
2022/09/15 03:18:48;;;;;;;4.10;2.73;;;18.40;92.30;;;;;;4939428;29;20869;-72
2022/09/15 03:21:17;;;;;;;5.03;2.60;;;18.30;92.20;;;;;;4974676;28;20433;-72
2022/09/15 03:23:43;;;;;;;7.13;2.70;;;18.30;92.20;;;;;;4967078;28;20869;-72
2022/09/15 03:26:10;;;;;;;3.40;2.30;;;18.30;92.20;;;;;;4954858;29;20430;-71
2022/09/15 03:28:37;;;;;;;2.70;2.50;;;18.30;92.20;;;;;;4939285;29;20422;-71
2022/09/15 03:31:05;;;;;;;3.53;2.97;;;18.30;92.20;;;;;;4923799;29;20434;-72
2022/09/15 03:33:31;;;;;;;4.40;3.20;;;18.30;92.20;;;;;;4943548;28;20934;-72
2022/09/15 03:36:03;;;;;;;4.40;3.03;;;18.30;92.20;;;;;;4959021;28;20947;-72
2022/09/15 03:38:34;;;;;;;4.50;2.67;;;18.30;92.20;;;;;;4942202;28;20453;-72
2022/09/15 03:41:06;;;;;;;7.63;2.77;;;18.30;92.20;;;;;;4958747;28;20780;-72
2022/09/15 03:43:35;;;;;;;3.33;2.43;;;18.30;92.20;;;;;;4958233;28;20437;-71
2022/09/15 03:46:09;;;;;;;4.03;2.40;;;18.30;92.20;;;;;;4926479;28;20460;-72
2022/09/15 03:48:35;;;;;;;2.77;2.57;;;18.20;92.20;;;;;;4926691;28;20461;-72
2022/09/15 03:51:07;;;;;;;3.77;2.50;;;18.20;92.20;;;;;;4958410;28;20425;-72
2022/09/15 03:53:36;;;;;;;2.80;2.53;;;18.30;92.30;;;;;;4958051;28;20450;-72
2022/09/15 03:56:20;;;;;;;5.33;2.50;;;18.30;92.30;;;;;;4956799;28;20453;-72
2022/09/15 03:58:46;;;;;;;3.00;2.80;;;18.30;92.30;;;;;;4957919;28;20523;-72
2022/09/15 04:01:12;;;;;;;2.87;2.47;;;18.20;92.20;;;;;;4939597;28;20453;-70
2022/09/15 04:03:38;;;;;;;4.33;2.33;;;18.20;92.20;;;;;;4941849;28;20854;-72
2022/09/15 04:06:05;;;;;;;4.87;2.63;;;18.20;92.30;;;;;;4941058;29;20986;-71
2022/09/15 04:08:30;;;;;;;2.73;2.30;;;18.20;92.30;;;;;;4956263;28;20401;-72
2022/09/15 04:10:56;;;;;;;2.60;2.37;;;18.20;92.30;;;;;;4975199;28;20463;-72
2022/09/15 04:13:26;;;;;;;3.87;2.33;;;18.20;92.30;;;;;;4974561;28;20445;-72
2022/09/15 04:16:23;;;;;;;2.80;2.43;;;18.20;92.40;;;;;;4926512;28;20430;-72
2022/09/15 04:18:52;;;;;;;4.00;2.50;;;18.20;92.40;;;;;;4923553;28;20579;-72
2022/09/15 04:21:21;;;;;;;2.57;2.37;;;18.20;92.40;;;;;;4941967;28;20479;-72
2022/09/15 04:23:48;;;;;;;5.60;2.50;;;18.20;92.40;;;;;;4957346;28;20428;-72
2022/09/15 04:26:31;;;;;;;3.83;2.20;;;18.20;92.40;;;;;;4942328;28;20830;-72
2022/09/15 04:28:59;;;;;;;2.67;2.23;;;18.20;92.50;;;;;;4953595;29;20868;-72
2022/09/15 04:31:24;;;;;;;3.30;2.40;;;18.20;92.40;;;;;;4951780;29;20430;-71
2022/09/15 04:33:55;;;;;;;2.90;2.30;;;18.20;92.40;;;;;;4959188;28;20969;-72
2022/09/15 04:36:23;;;;;;;2.63;2.43;;;18.20;92.50;;;;;;4974698;28;20994;-72
2022/09/15 04:38:49;;;;;;;2.83;2.50;;;18.20;92.50;;;;;;4937838;29;20462;-72
2022/09/15 04:41:20;;;;;;;5.60;2.70;;;18.10;92.40;;;;;;4955369;29;20764;-71
2022/09/15 04:43:48;;;;;;;2.40;2.20;;;18.10;92.50;;;;;;4966663;28;20572;-71
2022/09/15 04:46:15;;;;;;;3.90;3.17;;;18.10;92.50;;;;;;4973458;28;20982;-72
2022/09/15 04:48:42;;;;;;;2.83;2.63;;;18.10;92.50;;;;;;4957188;28;20929;-72
2022/09/15 04:51:17;;;;;;;2.60;2.40;;;18.10;92.50;;;;;;4974653;28;20709;-72
2022/09/15 04:53:43;;;;;;;3.50;2.90;;;18.10;92.50;;;;;;4956004;28;20579;-71
2022/09/15 04:56:25;;;;;;;3.87;2.83;;;18.10;92.60;;;;;;4974413;28;20913;-72
2022/09/15 04:58:58;;;;;;;2.77;2.53;;;18.10;92.60;;;;;;4940884;28;20456;-71
2022/09/15 05:01:30;;;;;;;3.20;2.90;;;18.10;92.60;;;;;;4941505;28;20448;-72
2022/09/15 05:04:02;;;;;;;3.93;2.23;;;18.10;92.60;;;;;;4973880;28;20424;-71
2022/09/15 05:06:32;;;;;;;2.67;2.47;;;18.10;92.60;;;;;;4938089;29;20509;-71
2022/09/15 05:08:58;;;;;;;2.90;2.60;;;18.10;92.60;;;;;;4941609;28;21011;-71
2022/09/15 05:11:44;;;;;;;8.27;3.10;;;18.10;92.60;;;;;;4959191;28;20433;-71
2022/09/15 05:14:12;;;;;;;2.93;2.63;;;18.10;92.60;;;;;;4973614;28;20459;-71
2022/09/15 05:16:40;;;;;;;3.50;2.37;;;18.10;92.70;;;;;;4952861;29;20430;-71
2022/09/15 05:19:11;;;;;;;3.37;2.90;;;18.10;92.60;;;;;;4937341;29;20549;-71
2022/09/15 05:21:42;;;;;;;4.57;2.97;;;18.10;92.60;;;;;;4937442;29;20504;-71
2022/09/15 05:24:10;;;;;;;6.00;2.90;;;18.10;92.70;;;;;;4958902;28;20448;-71
2022/09/15 05:26:40;;;;;;;2.87;2.63;;;18.10;92.60;;;;;;4947319;29;20478;-71
2022/09/15 05:29:06;;;;;;;4.10;2.80;;;18.00;92.60;;;;;;4923610;29;20437;-71
2022/09/15 05:31:33;;;;;;;5.93;2.70;;;18.10;92.70;;;;;;4920844;29;20441;-71
2022/09/15 05:34:01;;;;;;;4.03;3.20;;;18.00;92.60;;;;;;4952136;29;20432;-71
2022/09/15 05:36:27;;;;;;;3.10;2.80;;;18.00;92.70;;;;;;4945981;28;20457;-71
2022/09/15 05:38:55;;;;;;;4.07;2.80;;;18.00;92.70;;;;;;4951397;28;20528;-71
2022/09/15 05:41:28;;;;;;;4.00;3.20;;;18.00;92.70;;;;;;4937085;29;20500;-71
2022/09/15 05:43:56;;;;;;;4.30;2.87;;;18.00;92.70;;;;;;4957278;28;20416;-71
2022/09/15 05:46:29;;;;;;;3.20;2.73;;;18.00;92.70;;;;;;4924600;28;20461;-71
2022/09/15 05:48:59;;;;;;;3.00;2.70;;;18.00;92.70;;;;;;4952687;29;20489;-71
2022/09/15 05:51:28;;;;;;;5.70;3.20;;;18.00;92.70;;;;;;4937505;29;20994;-72
2022/09/15 05:53:57;;;;;;;4.07;3.57;;;18.00;92.70;;;;;;4939168;28;20564;-71
2022/09/15 05:56:45;;;;;;;5.40;2.90;;;18.00;92.80;;;;;;4952241;29;20437;-71
2022/09/15 05:59:13;;;;;;;4.40;2.83;;;18.00;92.70;;;;;;4958249;28;20460;-71
2022/09/15 06:01:41;;;;;;;9.53;2.97;;;18.00;92.80;;;;;;4973152;28;20305;-71
2022/09/15 06:04:12;;;;;;;3.73;2.60;;;18.00;92.80;;;;;;4973086;28;20529;-72
2022/09/15 06:06:40;;;;;;;5.83;3.00;;;18.00;92.80;;;;;;4940691;28;20441;-71
2022/09/15 06:09:08;;;;;;;5.03;2.60;;;18.00;92.80;;;;;;4952328;28;20441;-71
2022/09/15 06:11:34;;;;;;;3.30;2.63;;;18.00;92.80;;;;;;4945689;28;20503;-71
2022/09/15 06:14:02;;;;;;;3.40;2.60;;;18.00;92.80;;;;;;4954655;28;20848;-71
2022/09/15 06:16:34;;;;;;;4.30;3.30;;;18.00;92.80;;;;;;4920400;28;20489;-71
2022/09/15 06:19:00;;;;;;;3.00;2.60;;;18.00;92.90;;;;;;4956372;28;20559;-70
2022/09/15 06:21:31;;;;;;;3.60;3.30;;;18.00;92.90;;;;;;4954786;28;20625;-71
2022/09/15 06:24:23;;;;;;;2.90;2.60;;;18.00;92.90;;;;;;4958109;28;20453;-71
2022/09/15 06:26:51;;;;;;;4.80;2.83;;;18.00;92.90;;;;;;4954932;28;20512;-71
2022/09/15 06:29:17;;;;;;;4.07;3.00;;;18.00;92.90;;;;;;4955435;28;20433;-71
2022/09/15 06:31:46;;;;;;;4.13;2.93;;;18.00;93.00;;;;;;4956651;28;20439;-71
2022/09/15 06:34:12;;;;;;;9.13;2.90;;;17.90;92.90;;;;;;4952869;29;20797;-72
2022/09/15 06:36:41;;;;;;;4.10;2.47;;;18.00;93.00;;;;;;4955048;28;20421;-70
2022/09/15 06:39:07;;;;;;;4.67;3.20;;;18.00;93.00;;;;;;4939348;28;20473;-71
2022/09/15 06:41:36;;;;;;;4.67;2.60;;;18.00;93.00;;;;;;4937266;29;20485;-71
2022/09/15 06:44:08;;;;;;;5.37;3.20;;;18.00;93.00;;;;;;4948867;28;21046;-71
2022/09/15 06:46:41;;;;;;;5.00;3.23;;;17.90;93.00;;;;;;4956011;28;20437;-71
2022/09/15 06:49:12;;;;;;;3.00;2.70;;;17.90;93.00;;;;;;4972989;28;20508;-71
2022/09/15 06:51:44;;;;;;;5.20;2.93;;;18.00;93.00;;;;;;4986354;28;20477;-70
2022/09/15 06:54:10;;;;;;;4.73;3.40;;;18.00;93.10;;;;;;4962417;28;20986;-71
2022/09/15 06:56:36;;;;;;;3.90;3.20;;;17.90;93.00;;;;;;4977244;28;20788;-71
2022/09/15 06:59:07;;;;;;;3.27;2.97;;;18.00;93.10;;;;;;4980369;28;20965;-71
2022/09/15 07:01:36;;;;;;;3.80;2.80;;;17.90;93.00;;;;;;4963345;28;20519;-71
2022/09/15 07:04:08;;;;;;;4.00;3.00;;;18.00;93.10;;;;;;4978814;28;21013;-71
2022/09/15 07:06:36;;;;;;;3.67;3.20;;;18.00;93.20;;;;;;4988808;28;20440;-71
2022/09/15 07:09:04;;;;;;;6.03;3.33;;;18.00;93.10;;;;;;4975788;28;20440;-71
2022/09/15 07:11:31;;;;;;;3.50;3.20;;;17.90;93.10;;;;;;4965473;28;20449;-71
2022/09/15 07:14:00;;;;;;;3.40;3.03;;;18.00;93.20;;;;;;4944642;28;20440;-71
2022/09/15 07:16:25;;;;;;;6.03;3.90;;;17.90;93.10;;;;;;4981276;28;20456;-71
2022/09/15 07:19:00;;;;;;;4.00;3.60;;;17.90;93.10;;;;;;4976955;28;20445;-71
2022/09/15 07:21:44;;;;;;;4.80;3.60;;;18.00;93.20;;;;;;4976599;28;20559;-71
2022/09/15 07:24:16;;;;;;;4.53;3.50;;;18.00;93.20;;;;;;4976465;28;20530;-71
2022/09/15 07:26:44;;;;;;;3.77;3.40;;;18.00;93.20;;;;;;4949710;28;20468;-71
2022/09/15 07:29:11;;;;;;;3.80;3.40;;;18.00;93.20;;;;;;4959784;28;20484;-71
2022/09/15 07:31:40;;;;;;;5.20;3.50;;;18.00;93.30;;;;;;4948829;28;20441;-71
2022/09/15 07:34:07;;;;;;;3.70;3.40;;;18.00;93.20;;;;;;4943456;28;20248;-71
2022/09/15 07:36:33;;;;;;;8.57;3.80;;;18.00;93.30;;;;;;4943243;28;20798;-71
2022/09/15 07:38:59;;;;;;;4.00;3.10;;;18.00;93.30;;;;;;4974571;28;20472;-71
2022/09/15 07:41:27;;;;;;;8.20;3.20;;;18.00;93.30;;;;;;4955981;28;20471;-71
2022/09/15 07:43:57;;;;;;;4.47;2.80;;;18.00;93.20;;;;;;4996061;28;20558;-71
2022/09/15 07:46:25;;;;;;;3.50;3.20;;;18.00;93.30;;;;;;4965715;28;20949;-71
2022/09/15 07:48:56;;;;;;;4.50;3.67;;;17.90;93.30;;;;;;4974762;28;20448;-71
2022/09/15 07:51:25;;;;;;;4.83;3.23;;;18.00;93.30;;;;;;4976161;28;20510;-71
2022/09/15 07:53:54;;;;;;;3.57;3.10;;;17.90;93.20;;;;;;4942840;28;20445;-71
2022/09/15 07:56:24;;;;;;;5.07;3.20;;;18.00;93.30;;;;;;4943569;28;20462;-71
2022/09/15 07:58:51;;;;;;;5.20;3.60;;;18.00;93.30;;;;;;4974822;28;20790;-71
2022/09/15 08:01:18;;;;;;;3.30;3.00;;;18.00;93.30;;;;;;4958704;28;20471;-71
2022/09/15 08:03:47;;;;;;;5.23;3.10;;;18.00;93.30;;;;;;4926557;28;20441;-71
2022/09/15 08:06:20;;;;;;;4.73;2.97;;;18.00;93.30;;;;;;4939697;29;20760;-71
2022/09/15 08:08:50;;;;;;;4.97;3.20;;;18.00;93.30;;;;;;4963898;28;20837;-71
2022/09/15 08:11:20;;;;;;;4.70;3.30;;;18.00;93.30;;;;;;4961423;28;20465;-71
2022/09/15 08:13:48;;;;;;;4.97;3.03;;;18.00;93.30;;;;;;4958237;28;20429;-71
2022/09/15 08:16:17;;;;;;;4.10;3.20;;;18.00;93.30;;;;;;4959029;28;20898;-71
2022/09/15 08:18:45;;;;;;;4.43;3.40;;;18.00;93.30;;;;;;4958339;28;20444;-71
2022/09/15 08:21:19;;;;;;;4.17;2.97;;;18.00;93.30;;;;;;4939623;29;20415;-71
2022/09/15 08:23:50;;;;;;;3.83;3.03;;;18.00;93.30;;;;;;4966143;28;20428;-71
2022/09/15 08:26:16;;;;;;;3.50;2.70;;;18.00;93.30;;;;;;4978300;28;20736;-71
2022/09/15 08:28:42;;;;;;;3.80;2.87;;;18.00;93.30;;;;;;4975156;28;20519;-71
2022/09/15 08:31:10;;;;;;;3.70;2.87;;;18.00;93.30;;;;;;4942661;28;20421;-72
2022/09/15 08:33:36;;;;;;;4.50;2.90;;;18.00;93.20;;;;;;4958572;28;20405;-70
2022/09/15 08:36:05;;;;;;;5.20;3.90;;;18.10;93.30;;;;;;4990195;28;20452;-73
2022/09/15 08:38:34;;;;;;;4.43;3.30;;;18.00;93.30;;;;;;4948567;28;20441;-71
2022/09/15 08:41:08;;;;;;;3.73;2.73;;;18.00;93.30;;;;;;4968259;28;20462;-71
2022/09/15 08:44:04;;;;;;;3.67;3.07;;;18.00;93.30;;;;;;4954915;28;20406;-70
2022/09/15 08:46:40;;;;;;;4.90;3.03;;;18.00;93.30;;;;;;4956751;28;20452;-71
2022/09/15 08:49:16;;;;;;;3.10;2.60;;;18.00;93.40;;;;;;4941557;28;20474;-70
2022/09/15 08:51:46;;;;;;;4.40;2.80;;;18.00;93.40;;;;;;4942731;28;20457;-70
2022/09/15 08:54:23;;;;;;;3.80;3.10;;;18.00;93.40;;;;;;4974136;28;20460;-70
2022/09/15 08:56:50;;;;;;;3.00;2.47;;;18.10;93.40;;;;;;4979178;28;20987;-70
2022/09/15 08:59:19;;;;;;;3.87;3.07;;;18.10;93.50;;;;;;4957195;28;20544;-70
2022/09/15 09:02:10;;;;;;;5.73;3.43;;;18.10;93.50;;;;;;4977707;28;21003;-69
2022/09/15 09:05:30;;;;;;;3.87;2.37;;;18.10;93.50;;;;;;4953940;29;20489;-70
2022/09/15 09:08:27;;;;;;;4.33;2.63;;;18.10;93.50;;;;;;4938620;29;20448;-70
2022/09/15 09:11:31;;;;;;;3.53;3.23;;;18.10;93.50;;;;;;4957190;28;20437;-70
2022/09/15 09:14:18;;;;;;;6.03;3.07;;;18.10;93.60;;;;;;4957396;28;20466;-70
2022/09/15 09:17:21;;;;;;;4.13;2.80;;;18.10;93.60;;;;;;4966754;28;20504;-70
2022/09/15 09:20:04;;;;;;;2.50;2.30;;;18.10;93.70;;;;;;4948943;29;20472;-70
2022/09/15 09:22:38;;;;;;;5.27;2.60;;;18.10;93.70;;;;;;4965855;28;20427;-70
2022/09/15 09:25:12;;;;;;;3.00;2.43;;;18.10;93.60;;;;;;4962276;28;20459;-70
2022/09/15 09:27:48;;;;;;;3.80;2.50;;;18.10;93.60;;;;;;4955256;28;21008;-70
2022/09/15 09:30:18;;;;;;;3.07;2.30;;;18.20;93.60;;;;;;4961144;28;20919;-70
2022/09/15 09:32:53;;;;;;;2.93;2.40;;;18.10;93.60;;;;;;4964481;28;20475;-70
2022/09/15 09:35:36;;;;;;;2.63;2.13;;;18.20;93.60;;;;;;4960072;28;20457;-71
2022/09/15 09:38:11;;;;;;;3.40;2.30;;;18.20;93.50;;;;;;4938889;28;20441;-72
2022/09/15 09:40:40;;;;;;;4.87;2.50;;;18.20;93.50;;;;;;4926096;29;20465;-70
2022/09/15 09:43:07;;;;;;;3.53;2.53;;;18.20;93.50;;;;;;4961707;28;20418;-71
2022/09/15 09:45:34;;;;;;;3.40;2.20;;;18.20;93.50;;;;;;4956999;28;21064;-71
2022/09/15 09:48:05;;;;;;;3.13;2.10;;;18.20;93.40;;;;;;4960315;28;20428;-70
2022/09/15 09:50:43;;;;;;;5.43;2.20;;;18.30;93.40;;;;;;4976156;28;20408;-71
2022/09/15 09:53:28;;;;;;;3.20;2.50;;;18.20;93.40;;;;;;4957543;28;20961;-70
2022/09/15 09:56:13;;;;;;;2.30;2.10;;;18.30;93.40;;;;;;4972489;28;20464;-72
2022/09/15 09:58:44;;;;;;;3.97;2.13;;;18.30;93.50;;;;;;4957724;28;21008;-70
2022/09/15 10:01:19;;;;;;;4.47;2.40;;;18.30;93.50;;;;;;4953448;29;20423;-70
2022/09/15 10:03:49;;;;;;;8.23;2.67;;;18.30;93.50;;;;;;4974582;28;20510;-70
2022/09/15 10:06:21;;;;;;;4.83;2.00;;;18.30;93.50;;;;;;4960439;28;20409;-71
2022/09/15 10:08:53;;;;;;;2.93;2.13;;;18.30;93.50;;;;;;4945937;28;20477;-70
2022/09/15 10:11:21;;;;;;;5.03;2.17;;;18.40;93.60;;;;;;5017648;23;20543;-71
2022/09/15 10:13:55;;;;;;;2.83;2.13;;;18.40;93.50;;;;;;4974745;28;20421;-71
2022/09/15 10:16:26;;;;;;;2.33;1.73;;;18.40;93.50;;;;;;4928101;28;20420;-72
2022/09/15 10:18:59;;;;;;;5.30;2.23;;;18.40;93.50;;;;;;4939027;28;20505;-73
2022/09/15 10:21:26;;;;;;;4.73;1.83;;;18.40;93.40;;;;;;4971451;28;20479;-74
2022/09/15 10:24:17;;;;;;;2.53;1.93;;;18.40;93.40;;;;;;4963416;28;20444;-73
2022/09/15 10:26:50;;;;;;;5.07;1.80;;;18.40;93.40;;;;;;4967719;28;20452;-72
2022/09/15 10:29:24;;;;;;;4.17;1.97;;;18.40;93.30;;;;;;4946398;28;20523;-74
2022/09/15 10:31:53;;;;;;;3.40;2.13;;;18.50;93.30;;;;;;4946019;28;20533;-74
2022/09/15 10:34:29;;;;;;;2.13;1.50;;;18.40;93.20;;;;;;4961483;28;20453;-73
2022/09/15 10:37:41;;;;;;;3.63;2.23;;;18.50;93.30;;;;;;4964455;28;20483;-73
2022/09/15 10:40:31;;;;;;;2.27;1.43;;;18.50;93.20;;;;;;4946788;28;20469;-72
2022/09/15 10:43:21;;;;;;;4.97;2.00;;;18.50;93.20;;;;;;4961786;28;20429;-72
2022/09/15 10:46:11;;;;;;;3.40;1.73;;;18.50;93.30;;;;;;4969312;28;21205;-72
2022/09/15 10:49:14;;;;;;;3.40;1.90;;;18.50;93.40;;;;;;4944269;28;20428;-72
2022/09/15 10:52:04;;;;;;;3.20;1.70;;;18.60;93.50;;;;;;4957466;28;20415;-72
2022/09/15 10:54:45;;;;;;;2.30;1.70;;;18.60;93.50;;;;;;4959376;28;20471;-72
2022/09/15 10:57:29;;;;;;;4.47;1.83;;;18.60;93.40;;;;;;4966088;28;20458;-72
2022/09/15 11:00:01;;;;;;;3.30;1.87;;;18.60;93.40;;;;;;4946012;28;20827;-72
2022/09/15 11:02:47;;;;;;;3.47;1.87;;;18.60;93.40;;;;;;4979125;28;20448;-73
2022/09/15 11:05:36;;;;;;;2.37;1.80;;;18.70;93.40;;;;;;4946036;28;20977;-71
2022/09/15 11:08:13;;;;;;;2.53;2.03;;;18.60;93.20;;;;;;4941997;28;20872;-72
2022/09/15 11:10:55;;;;;;;3.93;1.40;;;18.70;93.20;;;;;;4988348;28;20437;-72
2022/09/15 11:13:52;;;;;;;3.60;1.30;;;18.70;93.10;;;;;;4944886;28;20484;-71
2022/09/15 11:16:30;;;;;;;2.57;1.70;;;18.70;93.10;;;;;;4969858;28;20448;-72
2022/09/15 11:19:20;;;;;;;1.87;1.60;;;18.70;93.00;;;;;;4978318;28;20459;-72
2022/09/15 11:21:58;;;;;;;1.90;1.70;;;18.70;93.00;;;;;;4971995;28;21091;-72
2022/09/15 11:24:32;;;;;;;3.33;1.70;;;18.70;93.00;;;;;;4929811;28;20950;-72
2022/09/15 11:27:20;;;;;;;4.30;1.87;;;18.70;93.00;;;;;;4933380;29;20818;-72
2022/09/15 11:29:52;;;;;;;2.03;1.60;;;18.80;92.90;;;;;;4951160;28;20448;-71
2022/09/15 11:32:35;;;;;;;3.33;1.87;;;18.80;92.90;;;;;;4967432;28;20492;-72
2022/09/15 11:35:28;;;;;;;3.10;2.00;;;18.80;92.90;;;;;;4942897;29;20508;-72
2022/09/15 11:38:03;;;;;;;3.73;1.80;;;18.80;92.90;;;;;;4956619;28;20988;-73
2022/09/15 11:40:41;;;;;;;2.50;1.50;;;18.80;92.90;;;;;;4941646;28;20802;-73
2022/09/15 11:43:20;;;;;;;2.83;1.67;;;18.80;92.90;;;;;;4955227;28;20502;-72
2022/09/15 11:45:55;;;;;;;5.03;1.60;;;18.80;92.90;;;;;;4975357;28;20445;-72
2022/09/15 11:48:31;;;;;;;2.60;1.70;;;18.80;92.90;;;;;;4942588;28;20488;-73
2022/09/15 11:51:02;;;;;;;2.03;1.60;;;18.80;92.90;;;;;;4985337;28;20445;-72
2022/09/15 11:54:07;;;;;;;2.97;2.03;;;18.80;92.80;;;;;;4958399;28;20508;-73
2022/09/15 11:56:41;;;;;;;4.03;1.70;;;18.80;92.80;;;;;;4945539;28;20954;-72
2022/09/15 11:59:22;;;;;;;2.90;1.63;;;18.90;92.90;;;;;;4958129;28;20448;-72
2022/09/15 12:02:18;;;;;;;3.47;1.70;;;18.90;92.80;;;;;;4941974;28;20996;-73
2022/09/15 12:05:13;;;;;;;1.53;1.40;;;18.80;92.70;;;;;;4958030;28;20484;-73
2022/09/15 12:08:29;;;;;;;4.33;1.70;;;18.90;92.80;;;;;;4941479;28;20437;-72
2022/09/15 12:11:01;;;;;;;2.50;1.67;;;18.90;92.80;;;;;;4945262;28;20525;-72
2022/09/15 12:13:32;;;;;;;2.13;1.87;;;18.90;92.80;;;;;;4941429;28;20942;-72
2022/09/15 12:16:05;;;;;;;3.40;1.63;;;18.90;92.80;;;;;;4957480;28;20578;-72
2022/09/15 12:18:39;;;;;;;3.27;1.60;;;18.90;92.80;;;;;;4957884;28;20444;-72
2022/09/15 12:21:11;;;;;;;2.80;1.60;;;18.90;92.70;;;;;;4975182;28;20465;-72
2022/09/15 12:23:42;;;;;;;3.67;1.60;;;18.90;92.70;;;;;;4987810;28;20502;-72
2022/09/15 12:26:27;;;;;;;2.90;1.30;;;18.90;92.70;;;;;;4974125;28;20604;-72
2022/09/15 12:28:56;;;;;;;2.50;1.47;;;18.90;92.70;;;;;;4956848;28;20564;-72
2022/09/15 12:31:32;;;;;;;4.77;1.80;;;18.90;92.70;;;;;;4957536;28;20436;-72
2022/09/15 12:34:02;;;;;;;1.30;1.20;;;19.00;92.70;;;;;;4957244;28;20508;-72
2022/09/15 12:36:40;;;;;;;3.57;1.53;;;18.90;92.70;;;;;;4959714;28;20405;-72
2022/09/15 12:39:24;;;;;;;5.53;1.80;;;19.00;92.80;;;;;;4990137;28;20974;-71
2022/09/15 12:41:59;;;;;;;2.17;1.70;;;19.00;92.80;;;;;;4958728;28;20468;-72
2022/09/15 12:44:35;;;;;;;2.27;1.50;;;19.00;92.80;;;;;;4975722;28;20489;-72
2022/09/15 12:47:04;;;;;;;2.87;1.90;;;19.00;92.80;;;;;;4956427;28;20482;-72
2022/09/15 12:49:40;;;;;;;3.27;1.63;;;19.00;92.80;;;;;;4939329;28;20448;-72
2022/09/15 12:52:14;;;;;;;5.80;1.70;;;19.00;92.80;;;;;;4941642;28;20432;-73
2022/09/15 12:54:44;;;;;;;3.00;1.80;;;19.00;92.80;;;;;;4973891;28;20457;-73
2022/09/15 12:57:26;;;;;;;3.90;1.97;;;19.00;92.80;;;;;;4974498;28;20403;-73
2022/09/15 13:00:22;;;;;;;3.50;1.83;;;19.00;92.80;;;;;;4956448;28;20481;-72
2022/09/15 13:02:51;;;;;;;1.97;1.50;;;19.00;92.80;;;;;;4941241;28;20462;-72
2022/09/15 13:05:44;;;;;;;3.30;1.93;;;19.00;92.70;;;;;;4956777;28;20440;-71
2022/09/15 13:08:32;;;;;;;6.00;2.03;;;19.00;92.80;;;;;;4951461;29;20430;-71
2022/09/15 13:11:11;;;;;;;3.00;1.73;;;19.00;92.80;;;;;;4937256;28;20464;-72
2022/09/15 13:13:42;;;;;;;3.93;1.80;;;19.00;92.70;;;;;;4956127;28;20487;-72
2022/09/15 13:16:24;;;;;;;2.70;2.30;;;19.00;92.80;;;;;;4940990;28;20422;-71
2022/09/15 13:19:11;;;;;;;2.20;1.93;;;19.00;92.70;;;;;;4924606;28;20548;-72
2022/09/15 13:21:44;;;;;;;3.43;2.30;;;19.10;92.80;;;;;;4972819;28;20460;-71
2022/09/15 13:24:22;;;;;;;5.20;2.30;;;19.10;92.70;;;;;;4964118;28;20450;-72
2022/09/15 13:26:54;;;;;;;4.63;2.50;;;19.10;92.70;;;;;;4956452;28;20406;-72